JP Observations

RJAA 221000Z 24005KT CAVOK 21/10 Q1016 BECMG 27005KT RJAA 221000Z 24005KT CAVOK 21/10 Q1016 BECMG 27005KT RMK A3000 RJAH 221000Z 04005KT 9999 FEW010 SCT/// 19/11 Q1015 RJBB 221000Z 21013KT CAVOK 19/12 Q1017 NOSIG RJBD 221000Z VRB02KT 9999 FEW040 SCT/// 19/13 Q1019 RJBE 221000Z 29008KT CAVOK 18/13 Q1017 RJCB 221000Z 15009KT 8000 FEW006 BKN009 BKN012 05/02 Q1023 RJCC 221000Z 19004KT 9999 FEW030 BKN/// 08/03 Q1022 RJCC 221000Z 19004KT 9999 FEW030 BKN/// 08/03 Q1022 RMK 1CU030 A3020 RJCH 221000Z 16004KT 120V200 9999 FEW030 SCT110 BKN150 11/05 Q1021 RJCK 221000Z 21005KT 9999 FEW005 SCT012 BKN060 03/01 Q1023 RJCM 221000Z 08002KT 9999 FEW040 BKN060 02/M02 Q1023 RJDC 221000Z 06010KT 9999 FEW030 18/14 Q1017 RJDT 221000Z 01010KT 340V050 9999 FEW008 SCT010 BKN/// 14/12 Q1018 RJEC 221000Z 31009KT 9999 FEW050 BKN/// 08/M01 Q1021 RJFF 221000Z 18004KT 120V200 CAVOK 22/14 Q1016 RJFF 221000Z 18004KT 120V200 CAVOK 22/14 Q1016 RMK A3002 RJFK 221000Z 13007KT 9999 FEW030 BKN/// 19/13 Q1017 RJFK 221000Z 13007KT 9999 FEW030 BKN/// 19/13 Q1017 RMK 1CU030 A3006 VOLCANIC ASH CLOUD S RJFM 221000Z 17007KT 9999 FEW025 SCT045 BKN/// 21/15 Q1017 RJFO 221000Z VRB02KT 9999 FEW035 19/14 Q1016 RJFR 221000Z 06003KT 9999 FEW030 18/13 Q1017 RJFS 221000Z 34004KT CAVOK 21/17 Q1016 RJFT 221000Z 18004KT 9999 FEW040 BKN080 22/10 Q1017 RJFU 221000Z 27008KT CAVOK 21/16 Q1016 RJGG 221000Z 14008KT CAVOK 21/14 Q1016 NOSIG RJKA 221000Z 14012KT 9999 FEW015 BKN/// 23/18 Q1015 RJNK 221000Z 23005KT 9999 FEW/// 17/12 Q1018 RJNT 221000Z 30006KT CAVOK 19/13 Q1018 RJNW 221000Z 22004KT CAVOK 15/11 Q1018 RJOA 221000Z VRB02KT CAVOK 17/10 Q1018 RJOB 221000Z 13005KT CAVOK 19/09 Q1017 RJOC 221000Z 03005KT 9999 FEW010 SCT150 BKN180 18/14 Q1018 RJOH 221000Z 10004KT 9999 FEW030 SCT150 BKN190 18/13 Q1018 RJOI 220955Z 00000KT 9999 SCT240 21/14 A3004 RMK SLP172 T02060139 RJOK 221000Z VRB02KT CAVOK 19/13 Q1018 RJOM 221000Z 00000KT 9999 FEW035 19/13 Q1017 RJOO 221000Z 23005KT 200V290 9999 FEW040 BKN/// 21/09 Q1017 RJOO 221000Z 23005KT 200V290 9999 FEW040 BKN/// 21/09 Q1017 RMK 1CU040 A3005 RJOR 221000Z 33003KT 9999 FEW020 BKN/// 17/14 Q1018 RJOT 221000Z VRB02KT CAVOK 19/11 Q1017 RJOW 221000Z 01003KT 320V050 4000 BR FEW002 BKN020 17/16 Q1018 RJOY 221000Z 33006KT CAVOK 21/13 Q1017 RJSA 221000Z 03004KT 9999 FEW030 BKN040 12/05 Q1019 RJSC 221000Z 01011KT CAVOK 18/09 Q1017 RJSF 221000Z 11007KT 040V130 CAVOK 21/02 Q1017 RJSI 221000Z 19016KT CAVOK 16/08 Q1017 RJSK 221000Z 27003KT 240V300 CAVOK 14/09 Q1018 RJSN 221000Z 05006KT CAVOK 15/13 Q1018 RJSR 221000Z 05005KT 010V080 CAVOK 15/07 Q1018 RJSS 221000Z 13003KT 090V160 9999 FEW050 14/08 Q1019 RJSY 221000Z 26004KT CAVOK 13/10 Q1018 RJTT 221000Z 18013KT CAVOK 20/15 Q1015 NOSIG RJTT 221000Z 18013KT CAVOK 20/15 Q1015 NOSIG RMK A3000 RJTY 220956Z AUTO 24003KT 10SM R36/4500FT CLR 22/11 A3004 RMK AO2 SLP172 T02160113 FZRANO $ ROAH 221000Z 11004KT 070V170 9999 -RA FEW010 FEW030CB SCT130 BKN/// 23/21 Q1013 ROAH 221000Z 11004KT 070V170 9999 -RA FEW010 FEW030CB SCT130 BKN/// 23/21 Q1013RMK 1CU010 1CB030 3AC130 A2992 LIGHTNING S RODN 220956Z AUTO 06004KT 10SM SCT120 22/20 A2995 RMK AO2 LTG DSNT S SLP148 T02170198 $ ROIG 221000Z 13007KT 9999 FEW002 BKN005 BKN025 24/24 Q1011 ROMY 221000Z 13010KT 9999 FEW006 SCT007 BKN008 24/23 Q1012 RORS 221000Z 14012KT 9999 FEW007 BKN/// 24/23 Q1012 ROYN 221000Z AUTO 14010KT 9999 SCT006 SCT009 BKN013 25/24 Q1011 RJNS 221000Z 25009KT CAVOK 18/13 Q1017